sensor_id;sensor_type;location;lat;lon;timestamp;P1;durP1;ratioP1;P2;durP2;ratioP2
22024;SDS011;11176;51.448;6.650;2023-08-07T00:00:15;8.38;;;2.08;;
22024;SDS011;11176;51.448;6.650;2023-08-07T00:02:41;10.43;;;1.95;;
22024;SDS011;11176;51.448;6.650;2023-08-07T00:05:08;8.15;;;1.92;;
22024;SDS011;11176;51.448;6.650;2023-08-07T00:07:35;6.57;;;1.75;;
22024;SDS011;11176;51.448;6.650;2023-08-07T00:10:01;7.10;;;1.92;;
22024;SDS011;11176;51.448;6.650;2023-08-07T00:12:29;9.07;;;2.47;;
22024;SDS011;11176;51.448;6.650;2023-08-07T00:14:55;8.18;;;2.30;;
22024;SDS011;11176;51.448;6.650;2023-08-07T00:17:22;6.70;;;2.10;;
22024;SDS011;11176;51.448;6.650;2023-08-07T00:19:48;6.97;;;2.13;;
22024;SDS011;11176;51.448;6.650;2023-08-07T00:22:15;8.98;;;2.17;;
22024;SDS011;11176;51.448;6.650;2023-08-07T00:24:41;7.40;;;2.00;;
22024;SDS011;11176;51.448;6.650;2023-08-07T00:27:08;8.65;;;2.20;;
22024;SDS011;11176;51.448;6.650;2023-08-07T00:29:38;11.35;;;2.25;;
22024;SDS011;11176;51.448;6.650;2023-08-07T00:32:05;7.75;;;1.92;;
22024;SDS011;11176;51.448;6.650;2023-08-07T00:34:32;7.95;;;2.13;;
22024;SDS011;11176;51.448;6.650;2023-08-07T00:36:59;6.97;;;2.30;;
22024;SDS011;11176;51.448;6.650;2023-08-07T00:39:26;5.85;;;1.75;;
22024;SDS011;11176;51.448;6.650;2023-08-07T00:41:53;11.45;;;2.33;;
22024;SDS011;11176;51.448;6.650;2023-08-07T00:44:21;6.88;;;2.08;;
22024;SDS011;11176;51.448;6.650;2023-08-07T00:46:49;5.82;;;1.90;;
22024;SDS011;11176;51.448;6.650;2023-08-07T00:49:16;6.50;;;1.70;;
22024;SDS011;11176;51.448;6.650;2023-08-07T00:51:45;11.32;;;2.03;;
22024;SDS011;11176;51.448;6.650;2023-08-07T00:54:12;8.50;;;1.90;;
22024;SDS011;11176;51.448;6.650;2023-08-07T00:56:41;6.93;;;2.22;;
22024;SDS011;11176;51.448;6.650;2023-08-07T00:59:09;8.30;;;2.20;;
22024;SDS011;11176;51.448;6.650;2023-08-07T01:01:37;5.95;;;1.77;;
22024;SDS011;11176;51.448;6.650;2023-08-07T01:04:04;8.45;;;1.95;;
22024;SDS011;11176;51.448;6.650;2023-08-07T01:06:31;6.93;;;1.70;;
22024;SDS011;11176;51.448;6.650;2023-08-07T01:08:57;10.85;;;2.65;;
22024;SDS011;11176;51.448;6.650;2023-08-07T01:14:08;13.88;;;2.33;;
22024;SDS011;11176;51.448;6.650;2023-08-07T01:16:50;6.95;;;1.73;;
22024;SDS011;11176;51.448;6.650;2023-08-07T01:19:23;12.13;;;2.08;;
22024;SDS011;11176;51.448;6.650;2023-08-07T01:22:10;11.82;;;2.60;;
22024;SDS011;11176;51.448;6.650;2023-08-07T01:24:39;12.55;;;2.50;;
22024;SDS011;11176;51.448;6.650;2023-08-07T01:29:53;6.53;;;1.50;;
22024;SDS011;11176;51.448;6.650;2023-08-07T01:35:09;11.38;;;2.50;;
22024;SDS011;11176;51.448;6.650;2023-08-07T01:37:39;7.40;;;2.22;;
22024;SDS011;11176;51.448;6.650;2023-08-07T01:40:08;5.10;;;1.98;;
22024;SDS011;11176;51.448;6.650;2023-08-07T01:42:37;8.98;;;2.25;;
22024;SDS011;11176;51.448;6.650;2023-08-07T01:45:04;8.80;;;2.30;;
22024;SDS011;11176;51.448;6.650;2023-08-07T01:47:31;8.82;;;2.13;;
22024;SDS011;11176;51.448;6.650;2023-08-07T01:49:58;9.40;;;2.47;;
22024;SDS011;11176;51.448;6.650;2023-08-07T01:52:26;9.05;;;2.40;;
22024;SDS011;11176;51.448;6.650;2023-08-07T01:54:53;6.43;;;1.70;;
22024;SDS011;11176;51.448;6.650;2023-08-07T01:57:19;11.27;;;2.40;;
22024;SDS011;11176;51.448;6.650;2023-08-07T01:59:46;7.93;;;2.58;;
22024;SDS011;11176;51.448;6.650;2023-08-07T02:02:12;10.02;;;2.35;;
22024;SDS011;11176;51.448;6.650;2023-08-07T02:04:39;7.53;;;2.08;;
22024;SDS011;11176;51.448;6.650;2023-08-07T02:07:05;7.05;;;2.05;;
22024;SDS011;11176;51.448;6.650;2023-08-07T02:09:32;9.65;;;2.40;;
22024;SDS011;11176;51.448;6.650;2023-08-07T02:11:59;8.48;;;2.38;;
22024;SDS011;11176;51.448;6.650;2023-08-07T02:14:26;6.57;;;2.13;;
22024;SDS011;11176;51.448;6.650;2023-08-07T02:16:53;7.35;;;2.33;;
22024;SDS011;11176;51.448;6.650;2023-08-07T02:19:20;9.18;;;2.67;;
22024;SDS011;11176;51.448;6.650;2023-08-07T02:21:47;7.85;;;2.33;;
22024;SDS011;11176;51.448;6.650;2023-08-07T02:24:13;7.60;;;2.03;;
22024;SDS011;11176;51.448;6.650;2023-08-07T02:26:39;11.68;;;2.70;;
22024;SDS011;11176;51.448;6.650;2023-08-07T02:29:06;7.45;;;2.70;;
22024;SDS011;11176;51.448;6.650;2023-08-07T02:31:35;10.50;;;2.55;;
22024;SDS011;11176;51.448;6.650;2023-08-07T02:34:01;9.55;;;2.65;;
22024;SDS011;11176;51.448;6.650;2023-08-07T02:36:29;10.75;;;2.90;;
22024;SDS011;11176;51.448;6.650;2023-08-07T02:38:56;10.68;;;2.70;;
22024;SDS011;11176;51.448;6.650;2023-08-07T02:41:22;11.13;;;2.55;;
22024;SDS011;11176;51.448;6.650;2023-08-07T02:43:49;12.82;;;3.00;;
22024;SDS011;11176;51.448;6.650;2023-08-07T02:46:15;14.10;;;2.78;;
22024;SDS011;11176;51.448;6.650;2023-08-07T02:48:43;9.30;;;2.70;;
22024;SDS011;11176;51.448;6.650;2023-08-07T02:51:10;8.38;;;2.33;;
22024;SDS011;11176;51.448;6.650;2023-08-07T02:53:36;10.45;;;2.65;;
22024;SDS011;11176;51.448;6.650;2023-08-07T02:56:03;14.05;;;2.90;;
22024;SDS011;11176;51.448;6.650;2023-08-07T02:58:29;15.15;;;3.30;;
22024;SDS011;11176;51.448;6.650;2023-08-07T03:00:56;11.63;;;2.85;;
22024;SDS011;11176;51.448;6.650;2023-08-07T03:03:22;9.35;;;2.45;;
22024;SDS011;11176;51.448;6.650;2023-08-07T03:05:49;10.40;;;2.40;;
22024;SDS011;11176;51.448;6.650;2023-08-07T03:08:17;11.15;;;2.60;;
22024;SDS011;11176;51.448;6.650;2023-08-07T03:10:49;10.27;;;2.30;;
22024;SDS011;11176;51.448;6.650;2023-08-07T03:13:19;14.55;;;3.35;;
22024;SDS011;11176;51.448;6.650;2023-08-07T03:15:46;8.35;;;2.60;;
22024;SDS011;11176;51.448;6.650;2023-08-07T03:18:16;12.75;;;3.03;;
22024;SDS011;11176;51.448;6.650;2023-08-07T03:20:43;12.60;;;2.95;;
22024;SDS011;11176;51.448;6.650;2023-08-07T03:23:10;11.35;;;2.97;;
22024;SDS011;11176;51.448;6.650;2023-08-07T03:25:37;16.15;;;3.00;;
22024;SDS011;11176;51.448;6.650;2023-08-07T03:28:04;13.25;;;2.83;;
22024;SDS011;11176;51.448;6.650;2023-08-07T03:30:30;7.97;;;2.50;;
22024;SDS011;11176;51.448;6.650;2023-08-07T03:32:57;11.13;;;2.90;;
22024;SDS011;11176;51.448;6.650;2023-08-07T03:35:24;11.43;;;3.47;;
22024;SDS011;11176;51.448;6.650;2023-08-07T03:37:51;13.93;;;3.33;;
22024;SDS011;11176;51.448;6.650;2023-08-07T03:40:20;13.02;;;3.10;;
22024;SDS011;11176;51.448;6.650;2023-08-07T03:42:46;8.20;;;2.97;;
22024;SDS011;11176;51.448;6.650;2023-08-07T03:45:13;13.48;;;3.20;;
22024;SDS011;11176;51.448;6.650;2023-08-07T03:47:40;9.95;;;3.00;;
22024;SDS011;11176;51.448;6.650;2023-08-07T03:50:07;9.82;;;2.78;;
22024;SDS011;11176;51.448;6.650;2023-08-07T03:52:33;8.30;;;3.05;;
22024;SDS011;11176;51.448;6.650;2023-08-07T03:55:00;12.45;;;3.15;;
22024;SDS011;11176;51.448;6.650;2023-08-07T03:57:26;11.13;;;3.17;;
22024;SDS011;11176;51.448;6.650;2023-08-07T03:59:53;14.00;;;2.83;;
22024;SDS011;11176;51.448;6.650;2023-08-07T04:02:20;13.73;;;3.65;;
22024;SDS011;11176;51.448;6.650;2023-08-07T04:04:47;8.98;;;2.60;;
22024;SDS011;11176;51.448;6.650;2023-08-07T04:07:14;12.38;;;2.97;;
22024;SDS011;11176;51.448;6.650;2023-08-07T04:09:40;9.75;;;3.10;;
22024;SDS011;11176;51.448;6.650;2023-08-07T04:12:07;13.00;;;3.60;;
22024;SDS011;11176;51.448;6.650;2023-08-07T04:14:34;12.60;;;3.13;;
22024;SDS011;11176;51.448;6.650;2023-08-07T04:17:01;10.30;;;2.88;;
22024;SDS011;11176;51.448;6.650;2023-08-07T04:19:27;7.32;;;2.58;;
22024;SDS011;11176;51.448;6.650;2023-08-07T04:21:54;11.15;;;2.92;;
22024;SDS011;11176;51.448;6.650;2023-08-07T04:24:20;11.50;;;3.60;;
22024;SDS011;11176;51.448;6.650;2023-08-07T04:26:47;9.50;;;3.22;;
22024;SDS011;11176;51.448;6.650;2023-08-07T04:29:13;15.65;;;3.28;;
22024;SDS011;11176;51.448;6.650;2023-08-07T04:31:40;11.30;;;3.42;;
22024;SDS011;11176;51.448;6.650;2023-08-07T04:34:06;15.82;;;3.17;;
22024;SDS011;11176;51.448;6.650;2023-08-07T04:36:33;10.05;;;2.85;;
22024;SDS011;11176;51.448;6.650;2023-08-07T04:38:59;12.43;;;3.38;;
22024;SDS011;11176;51.448;6.650;2023-08-07T04:41:26;10.52;;;3.17;;
22024;SDS011;11176;51.448;6.650;2023-08-07T04:43:53;12.82;;;2.85;;
22024;SDS011;11176;51.448;6.650;2023-08-07T04:46:20;13.57;;;3.22;;
22024;SDS011;11176;51.448;6.650;2023-08-07T04:48:46;14.48;;;3.40;;
22024;SDS011;11176;51.448;6.650;2023-08-07T04:51:13;13.07;;;3.47;;
22024;SDS011;11176;51.448;6.650;2023-08-07T04:53:41;11.80;;;3.30;;
22024;SDS011;11176;51.448;6.650;2023-08-07T04:56:08;10.40;;;2.97;;
22024;SDS011;11176;51.448;6.650;2023-08-07T04:58:34;13.30;;;3.40;;
22024;SDS011;11176;51.448;6.650;2023-08-07T05:01:01;9.52;;;3.17;;
22024;SDS011;11176;51.448;6.650;2023-08-07T05:03:27;14.93;;;3.72;;
22024;SDS011;11176;51.448;6.650;2023-08-07T05:06:00;10.20;;;3.05;;
22024;SDS011;11176;51.448;6.650;2023-08-07T05:08:27;9.70;;;3.40;;
22024;SDS011;11176;51.448;6.650;2023-08-07T05:10:54;9.98;;;3.20;;
22024;SDS011;11176;51.448;6.650;2023-08-07T05:13:20;11.93;;;3.30;;
22024;SDS011;11176;51.448;6.650;2023-08-07T05:15:47;7.03;;;2.85;;
22024;SDS011;11176;51.448;6.650;2023-08-07T05:18:14;11.73;;;3.35;;
22024;SDS011;11176;51.448;6.650;2023-08-07T05:20:41;14.18;;;3.85;;
22024;SDS011;11176;51.448;6.650;2023-08-07T05:23:08;10.98;;;3.38;;
22024;SDS011;11176;51.448;6.650;2023-08-07T05:25:36;9.82;;;3.55;;
22024;SDS011;11176;51.448;6.650;2023-08-07T05:28:03;13.63;;;3.55;;
22024;SDS011;11176;51.448;6.650;2023-08-07T05:30:30;11.63;;;3.53;;
22024;SDS011;11176;51.448;6.650;2023-08-07T05:32:56;10.15;;;3.45;;
22024;SDS011;11176;51.448;6.650;2023-08-07T05:35:23;8.25;;;3.17;;
22024;SDS011;11176;51.448;6.650;2023-08-07T05:37:50;12.20;;;3.53;;
22024;SDS011;11176;51.448;6.650;2023-08-07T05:40:16;8.27;;;2.80;;
22024;SDS011;11176;51.448;6.650;2023-08-07T05:42:43;8.40;;;3.03;;
22024;SDS011;11176;51.448;6.650;2023-08-07T05:45:10;10.50;;;3.65;;
22024;SDS011;11176;51.448;6.650;2023-08-07T05:47:37;14.48;;;3.85;;
22024;SDS011;11176;51.448;6.650;2023-08-07T05:50:04;10.57;;;3.50;;
22024;SDS011;11176;51.448;6.650;2023-08-07T05:52:31;11.85;;;3.88;;
22024;SDS011;11176;51.448;6.650;2023-08-07T05:54:57;9.65;;;3.40;;
22024;SDS011;11176;51.448;6.650;2023-08-07T05:57:24;8.07;;;3.20;;
22024;SDS011;11176;51.448;6.650;2023-08-07T05:59:50;11.80;;;3.65;;
22024;SDS011;11176;51.448;6.650;2023-08-07T06:02:17;9.37;;;3.50;;
22024;SDS011;11176;51.448;6.650;2023-08-07T06:04:44;9.63;;;3.20;;
22024;SDS011;11176;51.448;6.650;2023-08-07T06:07:11;8.95;;;3.33;;
22024;SDS011;11176;51.448;6.650;2023-08-07T06:09:38;7.78;;;3.50;;
22024;SDS011;11176;51.448;6.650;2023-08-07T06:12:04;6.93;;;2.92;;
22024;SDS011;11176;51.448;6.650;2023-08-07T06:14:31;10.32;;;3.42;;
22024;SDS011;11176;51.448;6.650;2023-08-07T06:16:57;9.23;;;3.35;;
22024;SDS011;11176;51.448;6.650;2023-08-07T06:19:24;13.95;;;3.33;;
22024;SDS011;11176;51.448;6.650;2023-08-07T06:21:57;5.55;;;2.60;;
22024;SDS011;11176;51.448;6.650;2023-08-07T06:24:24;7.53;;;3.03;;
22024;SDS011;11176;51.448;6.650;2023-08-07T06:26:51;8.35;;;2.45;;
22024;SDS011;11176;51.448;6.650;2023-08-07T06:29:18;9.00;;;3.33;;
22024;SDS011;11176;51.448;6.650;2023-08-07T06:31:44;7.72;;;2.88;;
22024;SDS011;11176;51.448;6.650;2023-08-07T06:34:11;8.48;;;2.92;;
22024;SDS011;11176;51.448;6.650;2023-08-07T06:36:37;9.45;;;3.63;;
22024;SDS011;11176;51.448;6.650;2023-08-07T06:39:04;10.70;;;4.07;;
22024;SDS011;11176;51.448;6.650;2023-08-07T06:41:30;8.73;;;3.22;;
22024;SDS011;11176;51.448;6.650;2023-08-07T06:43:57;8.70;;;3.72;;
22024;SDS011;11176;51.448;6.650;2023-08-07T06:46:24;16.63;;;3.53;;
22024;SDS011;11176;51.448;6.650;2023-08-07T06:48:53;11.25;;;3.85;;
22024;SDS011;11176;51.448;6.650;2023-08-07T06:51:19;11.77;;;3.75;;
22024;SDS011;11176;51.448;6.650;2023-08-07T06:53:46;8.65;;;3.15;;
22024;SDS011;11176;51.448;6.650;2023-08-07T06:56:13;12.45;;;3.70;;
22024;SDS011;11176;51.448;6.650;2023-08-07T06:58:39;9.80;;;3.58;;
22024;SDS011;11176;51.448;6.650;2023-08-07T07:01:06;8.70;;;2.95;;
22024;SDS011;11176;51.448;6.650;2023-08-07T07:03:32;10.10;;;2.95;;
22024;SDS011;11176;51.448;6.650;2023-08-07T07:05:59;8.63;;;3.35;;
22024;SDS011;11176;51.448;6.650;2023-08-07T07:08:26;10.20;;;3.00;;
22024;SDS011;11176;51.448;6.650;2023-08-07T07:10:53;10.55;;;3.60;;
22024;SDS011;11176;51.448;6.650;2023-08-07T07:13:20;11.75;;;3.53;;
22024;SDS011;11176;51.448;6.650;2023-08-07T07:15:46;9.35;;;3.00;;
22024;SDS011;11176;51.448;6.650;2023-08-07T07:18:18;7.97;;;2.90;;
22024;SDS011;11176;51.448;6.650;2023-08-07T07:20:44;8.05;;;3.00;;
22024;SDS011;11176;51.448;6.650;2023-08-07T07:23:11;9.82;;;3.30;;
22024;SDS011;11176;51.448;6.650;2023-08-07T07:25:37;8.57;;;3.33;;
22024;SDS011;11176;51.448;6.650;2023-08-07T07:28:04;11.02;;;3.40;;
22024;SDS011;11176;51.448;6.650;2023-08-07T07:30:30;11.52;;;2.90;;
22024;SDS011;11176;51.448;6.650;2023-08-07T07:32:57;9.98;;;3.25;;
22024;SDS011;11176;51.448;6.650;2023-08-07T07:35:23;8.15;;;2.90;;
22024;SDS011;11176;51.448;6.650;2023-08-07T07:37:50;8.48;;;2.85;;
22024;SDS011;11176;51.448;6.650;2023-08-07T07:40:17;12.38;;;3.22;;
22024;SDS011;11176;51.448;6.650;2023-08-07T07:42:43;7.85;;;3.40;;
22024;SDS011;11176;51.448;6.650;2023-08-07T07:45:10;10.88;;;3.55;;
22024;SDS011;11176;51.448;6.650;2023-08-07T07:47:37;7.32;;;2.83;;
22024;SDS011;11176;51.448;6.650;2023-08-07T07:50:04;9.43;;;3.60;;
22024;SDS011;11176;51.448;6.650;2023-08-07T07:52:33;9.05;;;3.55;;
22024;SDS011;11176;51.448;6.650;2023-08-07T07:55:00;8.05;;;3.53;;
22024;SDS011;11176;51.448;6.650;2023-08-07T07:57:27;8.73;;;3.42;;
22024;SDS011;11176;51.448;6.650;2023-08-07T07:59:53;8.48;;;3.53;;
22024;SDS011;11176;51.448;6.650;2023-08-07T08:02:20;8.52;;;3.35;;
22024;SDS011;11176;51.448;6.650;2023-08-07T08:04:48;10.63;;;3.42;;
22024;SDS011;11176;51.448;6.650;2023-08-07T08:07:15;10.27;;;4.15;;
22024;SDS011;11176;51.448;6.650;2023-08-07T08:09:41;10.20;;;3.28;;
22024;SDS011;11176;51.448;6.650;2023-08-07T08:12:08;11.25;;;3.42;;
22024;SDS011;11176;51.448;6.650;2023-08-07T08:14:35;7.18;;;3.35;;
22024;SDS011;11176;51.448;6.650;2023-08-07T08:17:20;10.27;;;2.90;;
22024;SDS011;11176;51.448;6.650;2023-08-07T08:19:47;9.27;;;2.97;;
22024;SDS011;11176;51.448;6.650;2023-08-07T08:22:16;13.57;;;3.30;;
22024;SDS011;11176;51.448;6.650;2023-08-07T08:24:43;10.07;;;3.38;;
22024;SDS011;11176;51.448;6.650;2023-08-07T08:27:09;8.05;;;2.65;;
22024;SDS011;11176;51.448;6.650;2023-08-07T08:29:36;9.40;;;3.10;;
22024;SDS011;11176;51.448;6.650;2023-08-07T08:32:03;9.77;;;3.03;;
22024;SDS011;11176;51.448;6.650;2023-08-07T08:34:30;8.80;;;2.95;;
22024;SDS011;11176;51.448;6.650;2023-08-07T08:36:56;5.90;;;2.70;;
22024;SDS011;11176;51.448;6.650;2023-08-07T08:39:23;8.27;;;2.67;;
22024;SDS011;11176;51.448;6.650;2023-08-07T08:41:50;17.00;;;3.50;;
22024;SDS011;11176;51.448;6.650;2023-08-07T08:44:16;8.05;;;2.95;;
22024;SDS011;11176;51.448;6.650;2023-08-07T08:46:45;7.78;;;2.60;;
22024;SDS011;11176;51.448;6.650;2023-08-07T08:49:15;7.47;;;2.80;;
22024;SDS011;11176;51.448;6.650;2023-08-07T08:51:46;9.30;;;2.90;;
22024;SDS011;11176;51.448;6.650;2023-08-07T08:54:13;6.43;;;2.50;;
22024;SDS011;11176;51.448;6.650;2023-08-07T08:56:41;10.13;;;3.42;;
22024;SDS011;11176;51.448;6.650;2023-08-07T08:59:08;14.63;;;3.72;;
22024;SDS011;11176;51.448;6.650;2023-08-07T09:01:35;10.82;;;3.05;;
22024;SDS011;11176;51.448;6.650;2023-08-07T09:04:03;11.38;;;3.60;;
22024;SDS011;11176;51.448;6.650;2023-08-07T09:06:34;9.57;;;3.08;;
22024;SDS011;11176;51.448;6.650;2023-08-07T09:09:00;8.98;;;3.60;;
22024;SDS011;11176;51.448;6.650;2023-08-07T09:11:28;11.50;;;3.55;;
22024;SDS011;11176;51.448;6.650;2023-08-07T09:13:55;10.50;;;3.60;;
22024;SDS011;11176;51.448;6.650;2023-08-07T09:16:25;10.68;;;3.75;;
22024;SDS011;11176;51.448;6.650;2023-08-07T09:18:53;8.57;;;3.17;;
22024;SDS011;11176;51.448;6.650;2023-08-07T09:21:21;11.13;;;3.47;;
22024;SDS011;11176;51.448;6.650;2023-08-07T09:23:48;9.95;;;3.17;;
22024;SDS011;11176;51.448;6.650;2023-08-07T09:26:15;9.70;;;3.45;;
22024;SDS011;11176;51.448;6.650;2023-08-07T09:28:48;10.60;;;3.40;;
22024;SDS011;11176;51.448;6.650;2023-08-07T09:31:18;11.82;;;3.47;;
22024;SDS011;11176;51.448;6.650;2023-08-07T09:33:47;10.07;;;3.10;;
22024;SDS011;11176;51.448;6.650;2023-08-07T09:36:17;11.20;;;3.15;;
22024;SDS011;11176;51.448;6.650;2023-08-07T09:38:49;7.95;;;3.28;;
22024;SDS011;11176;51.448;6.650;2023-08-07T09:41:19;9.77;;;2.92;;
22024;SDS011;11176;51.448;6.650;2023-08-07T09:43:46;8.23;;;2.72;;
22024;SDS011;11176;51.448;6.650;2023-08-07T09:46:13;7.63;;;2.80;;
22024;SDS011;11176;51.448;6.650;2023-08-07T09:48:40;8.13;;;2.85;;
22024;SDS011;11176;51.448;6.650;2023-08-07T09:51:08;10.65;;;3.60;;
22024;SDS011;11176;51.448;6.650;2023-08-07T09:53:34;12.65;;;3.15;;
22024;SDS011;11176;51.448;6.650;2023-08-07T09:56:01;15.88;;;3.20;;
22024;SDS011;11176;51.448;6.650;2023-08-07T09:58:28;12.00;;;3.50;;
22024;SDS011;11176;51.448;6.650;2023-08-07T10:00:55;11.25;;;3.33;;
22024;SDS011;11176;51.448;6.650;2023-08-07T10:03:26;11.98;;;4.00;;
22024;SDS011;11176;51.448;6.650;2023-08-07T10:05:53;12.00;;;3.60;;
22024;SDS011;11176;51.448;6.650;2023-08-07T10:08:20;13.40;;;3.00;;
22024;SDS011;11176;51.448;6.650;2023-08-07T10:10:47;8.93;;;2.50;;
22024;SDS011;11176;51.448;6.650;2023-08-07T10:13:14;9.93;;;2.58;;
22024;SDS011;11176;51.448;6.650;2023-08-07T10:15:43;14.05;;;3.13;;
22024;SDS011;11176;51.448;6.650;2023-08-07T10:18:11;13.80;;;3.42;;
22024;SDS011;11176;51.448;6.650;2023-08-07T10:20:38;9.98;;;3.20;;
22024;SDS011;11176;51.448;6.650;2023-08-07T10:23:08;6.70;;;2.70;;
22024;SDS011;11176;51.448;6.650;2023-08-07T10:25:37;7.78;;;3.17;;
22024;SDS011;11176;51.448;6.650;2023-08-07T10:28:11;11.63;;;2.90;;
22024;SDS011;11176;51.448;6.650;2023-08-07T10:30:42;9.73;;;2.30;;
22024;SDS011;11176;51.448;6.650;2023-08-07T10:33:09;10.73;;;2.40;;
22024;SDS011;11176;51.448;6.650;2023-08-07T10:35:39;11.10;;;2.20;;
22024;SDS011;11176;51.448;6.650;2023-08-07T10:38:13;7.10;;;2.40;;
22024;SDS011;11176;51.448;6.650;2023-08-07T10:43:38;7.10;;;2.38;;
22024;SDS011;11176;51.448;6.650;2023-08-07T10:46:12;8.68;;;2.58;;
22024;SDS011;11176;51.448;6.650;2023-08-07T10:48:44;8.55;;;2.55;;
22024;SDS011;11176;51.448;6.650;2023-08-07T10:51:14;6.10;;;2.40;;
22024;SDS011;11176;51.448;6.650;2023-08-07T10:53:48;5.80;;;2.33;;
22024;SDS011;11176;51.448;6.650;2023-08-07T10:56:21;6.68;;;2.70;;
22024;SDS011;11176;51.448;6.650;2023-08-07T10:58:57;8.60;;;2.30;;
22024;SDS011;11176;51.448;6.650;2023-08-07T11:03:54;8.32;;;2.80;;
22024;SDS011;11176;51.448;6.650;2023-08-07T11:06:23;5.60;;;1.98;;
22024;SDS011;11176;51.448;6.650;2023-08-07T11:08:52;7.78;;;2.40;;
22024;SDS011;11176;51.448;6.650;2023-08-07T11:11:19;9.88;;;2.80;;
22024;SDS011;11176;51.448;6.650;2023-08-07T11:13:46;7.80;;;2.13;;
22024;SDS011;11176;51.448;6.650;2023-08-07T11:16:13;6.78;;;2.13;;
22024;SDS011;11176;51.448;6.650;2023-08-07T11:18:40;7.75;;;2.30;;
22024;SDS011;11176;51.448;6.650;2023-08-07T11:21:08;8.07;;;2.28;;
22024;SDS011;11176;51.448;6.650;2023-08-07T11:23:39;9.50;;;2.15;;
22024;SDS011;11176;51.448;6.650;2023-08-07T11:26:06;6.55;;;2.25;;
22024;SDS011;11176;51.448;6.650;2023-08-07T11:28:34;4.70;;;2.00;;
22024;SDS011;11176;51.448;6.650;2023-08-07T11:31:00;8.73;;;2.35;;
22024;SDS011;11176;51.448;6.650;2023-08-07T11:33:27;10.98;;;2.38;;
22024;SDS011;11176;51.448;6.650;2023-08-07T11:35:55;5.78;;;2.28;;
22024;SDS011;11176;51.448;6.650;2023-08-07T11:38:56;8.63;;;2.22;;
22024;SDS011;11176;51.448;6.650;2023-08-07T11:41:16;12.23;;;3.07;;
22024;SDS011;11176;51.448;6.650;2023-08-07T11:43:43;7.10;;;2.28;;
22024;SDS011;11176;51.448;6.650;2023-08-07T11:46:11;6.68;;;1.95;;
22024;SDS011;11176;51.448;6.650;2023-08-07T11:48:39;7.60;;;2.13;;
22024;SDS011;11176;51.448;6.650;2023-08-07T11:51:07;8.93;;;2.15;;
22024;SDS011;11176;51.448;6.650;2023-08-07T11:53:35;9.40;;;2.45;;
22024;SDS011;11176;51.448;6.650;2023-08-07T11:56:04;11.18;;;2.28;;
22024;SDS011;11176;51.448;6.650;2023-08-07T11:58:39;8.48;;;2.22;;
22024;SDS011;11176;51.448;6.650;2023-08-07T12:01:10;7.43;;;2.50;;
22024;SDS011;11176;51.448;6.650;2023-08-07T12:03:41;10.10;;;2.53;;
22024;SDS011;11176;51.448;6.650;2023-08-07T12:06:16;7.28;;;2.30;;
22024;SDS011;11176;51.448;6.650;2023-08-07T12:08:43;7.00;;;2.10;;
22024;SDS011;11176;51.448;6.650;2023-08-07T12:11:11;6.05;;;1.70;;
22024;SDS011;11176;51.448;6.650;2023-08-07T12:13:39;6.85;;;2.00;;
22024;SDS011;11176;51.448;6.650;2023-08-07T12:16:08;7.88;;;1.90;;
22024;SDS011;11176;51.448;6.650;2023-08-07T12:18:36;7.85;;;1.88;;
22024;SDS011;11176;51.448;6.650;2023-08-07T12:21:06;7.50;;;1.70;;
22024;SDS011;11176;51.448;6.650;2023-08-07T12:23:34;6.45;;;2.28;;
22024;SDS011;11176;51.448;6.650;2023-08-07T12:26:02;8.20;;;1.73;;
22024;SDS011;11176;51.448;6.650;2023-08-07T12:28:29;8.75;;;1.65;;
22024;SDS011;11176;51.448;6.650;2023-08-07T12:30:56;7.88;;;2.00;;
22024;SDS011;11176;51.448;6.650;2023-08-07T12:33:23;7.05;;;1.75;;
22024;SDS011;11176;51.448;6.650;2023-08-07T12:35:50;6.38;;;1.50;;
22024;SDS011;11176;51.448;6.650;2023-08-07T12:38:17;5.88;;;1.60;;
22024;SDS011;11176;51.448;6.650;2023-08-07T12:40:43;7.95;;;1.92;;
22024;SDS011;11176;51.448;6.650;2023-08-07T12:43:10;5.65;;;1.77;;
22024;SDS011;11176;51.448;6.650;2023-08-07T12:45:37;6.65;;;1.77;;
22024;SDS011;11176;51.448;6.650;2023-08-07T12:48:06;5.95;;;1.60;;
22024;SDS011;11176;51.448;6.650;2023-08-07T12:50:33;6.15;;;1.48;;
22024;SDS011;11176;51.448;6.650;2023-08-07T12:53:00;4.15;;;1.52;;
22024;SDS011;11176;51.448;6.650;2023-08-07T12:55:28;7.97;;;1.63;;
22024;SDS011;11176;51.448;6.650;2023-08-07T12:57:55;8.05;;;2.03;;
22024;SDS011;11176;51.448;6.650;2023-08-07T13:00:23;5.65;;;1.48;;
22024;SDS011;11176;51.448;6.650;2023-08-07T13:02:50;6.18;;;1.23;;
22024;SDS011;11176;51.448;6.650;2023-08-07T13:05:18;4.28;;;1.80;;
22024;SDS011;11176;51.448;6.650;2023-08-07T13:07:46;5.20;;;1.55;;
22024;SDS011;11176;51.448;6.650;2023-08-07T13:10:16;7.82;;;1.52;;
22024;SDS011;11176;51.448;6.650;2023-08-07T13:12:44;5.07;;;1.20;;
22024;SDS011;11176;51.448;6.650;2023-08-07T13:15:14;3.72;;;1.25;;
22024;SDS011;11176;51.448;6.650;2023-08-07T13:17:42;3.97;;;1.40;;
22024;SDS011;11176;51.448;6.650;2023-08-07T13:20:10;5.03;;;1.65;;
22024;SDS011;11176;51.448;6.650;2023-08-07T13:22:42;5.80;;;1.60;;
22024;SDS011;11176;51.448;6.650;2023-08-07T13:25:11;4.57;;;1.57;;
22024;SDS011;11176;51.448;6.650;2023-08-07T13:27:39;7.18;;;1.88;;
22024;SDS011;11176;51.448;6.650;2023-08-07T13:30:06;6.18;;;1.60;;
22024;SDS011;11176;51.448;6.650;2023-08-07T13:32:35;4.93;;;1.63;;
22024;SDS011;11176;51.448;6.650;2023-08-07T13:35:02;5.97;;;1.52;;
22024;SDS011;11176;51.448;6.650;2023-08-07T13:37:29;4.70;;;1.23;;
22024;SDS011;11176;51.448;6.650;2023-08-07T13:39:56;4.05;;;1.38;;
22024;SDS011;11176;51.448;6.650;2023-08-07T13:42:25;3.40;;;1.10;;
22024;SDS011;11176;51.448;6.650;2023-08-07T13:44:54;3.95;;;1.02;;
22024;SDS011;11176;51.448;6.650;2023-08-07T13:47:24;4.05;;;1.60;;
22024;SDS011;11176;51.448;6.650;2023-08-07T13:49:55;2.85;;;1.10;;
22024;SDS011;11176;51.448;6.650;2023-08-07T13:52:22;3.53;;;1.40;;
22024;SDS011;11176;51.448;6.650;2023-08-07T13:54:49;2.97;;;1.00;;
22024;SDS011;11176;51.448;6.650;2023-08-07T13:57:16;5.97;;;1.30;;
22024;SDS011;11176;51.448;6.650;2023-08-07T13:59:43;3.70;;;1.10;;
22024;SDS011;11176;51.448;6.650;2023-08-07T14:02:09;4.20;;;1.20;;
22024;SDS011;11176;51.448;6.650;2023-08-07T14:04:36;4.38;;;1.27;;
22024;SDS011;11176;51.448;6.650;2023-08-07T14:07:02;4.60;;;1.30;;
22024;SDS011;11176;51.448;6.650;2023-08-07T14:09:30;3.97;;;1.05;;
22024;SDS011;11176;51.448;6.650;2023-08-07T14:11:56;6.13;;;1.48;;
22024;SDS011;11176;51.448;6.650;2023-08-07T14:14:24;4.00;;;1.25;;
22024;SDS011;11176;51.448;6.650;2023-08-07T14:16:50;3.63;;;1.17;;
22024;SDS011;11176;51.448;6.650;2023-08-07T14:19:17;2.58;;;1.30;;
22024;SDS011;11176;51.448;6.650;2023-08-07T14:21:44;3.63;;;1.38;;
22024;SDS011;11176;51.448;6.650;2023-08-07T14:24:10;4.43;;;1.15;;
22024;SDS011;11176;51.448;6.650;2023-08-07T14:26:37;5.38;;;1.00;;
22024;SDS011;11176;51.448;6.650;2023-08-07T14:29:03;2.25;;;0.98;;
22024;SDS011;11176;51.448;6.650;2023-08-07T14:31:30;4.00;;;0.85;;
22024;SDS011;11176;51.448;6.650;2023-08-07T14:33:56;2.85;;;1.05;;
22024;SDS011;11176;51.448;6.650;2023-08-07T14:36:23;5.20;;;1.40;;
22024;SDS011;11176;51.448;6.650;2023-08-07T14:38:50;3.90;;;1.20;;
22024;SDS011;11176;51.448;6.650;2023-08-07T14:41:17;4.20;;;1.95;;
22024;SDS011;11176;51.448;6.650;2023-08-07T14:43:44;4.20;;;1.60;;
22024;SDS011;11176;51.448;6.650;2023-08-07T14:46:11;2.05;;;0.90;;
22024;SDS011;11176;51.448;6.650;2023-08-07T14:48:38;4.80;;;1.10;;
22024;SDS011;11176;51.448;6.650;2023-08-07T14:51:04;5.40;;;1.30;;
22024;SDS011;11176;51.448;6.650;2023-08-07T14:53:31;3.42;;;1.60;;
22024;SDS011;11176;51.448;6.650;2023-08-07T14:55:58;5.88;;;1.20;;
22024;SDS011;11176;51.448;6.650;2023-08-07T14:58:25;4.57;;;1.40;;